Time;durP1;ratioP1;P1;durP2;ratioP2;P2;SDS_P1;SDS_P2;PMS_P1;PMS_P2;Temp;Humidity;BMP_temperature;BMP_pressure;BME280_temperature;BME280_humidity;BME280_pressure;Samples;Min_cycle;Max_cycle;Signal;HPM_P1;HPM_P2
2022/04/18 00:00:19;;;;;;;1.27;0.90;;;;;;;2.12;100.00;62215.41;5073494;28;20208;-73
2022/04/18 00:02:46;;;;;;;0.80;0.80;;;;;;;1.96;100.00;62198.97;5084417;28;20224;-74
2022/04/18 00:05:13;;;;;;;0.77;0.77;;;;;;;1.94;100.00;62199.44;5084234;28;20201;-74
2022/04/18 00:07:39;;;;;;;1.10;1.10;;;;;;;2.00;100.00;62201.09;5089098;28;20262;-73
2022/04/18 00:10:07;;;;;;;1.00;1.00;;;;;;;1.83;100.00;62188.16;5078217;28;20267;-74
2022/04/18 00:12:34;;;;;;;1.10;1.10;;;;;;;1.81;100.00;62184.09;5083246;28;20221;-73
2022/04/18 00:15:01;;;;;;;0.80;0.80;;;;;;;1.96;100.00;62197.00;5073020;28;20201;-73
2022/04/18 00:17:29;;;;;;;0.93;0.93;;;;;;;2.07;100.00;62213.28;5068980;28;20229;-74
2022/04/18 00:19:56;;;;;;;0.98;0.98;;;;;;;2.00;100.00;62206.09;5066168;28;20243;-74
2022/04/18 00:22:24;;;;;;;1.15;1.15;;;;;;;2.01;100.00;62201.59;5066684;28;20229;-73
2022/04/18 00:24:51;;;;;;;1.30;1.23;;;;;;;1.97;100.00;62202.50;5078489;28;20498;-74
2022/04/18 00:27:18;;;;;;;0.90;0.90;;;;;;;1.96;100.00;62204.00;5077662;28;20225;-75
2022/04/18 00:29:47;;;;;;;0.95;0.95;;;;;;;1.96;100.00;62204.53;5088461;28;20258;-75
2022/04/18 00:32:14;;;;;;;1.00;1.00;;;;;;;1.91;100.00;62191.84;5090984;28;20220;-74
2022/04/18 00:34:43;;;;;;;0.80;0.80;;;;;;;2.02;100.00;62203.16;5074219;28;20244;-74
2022/04/18 00:37:09;;;;;;;0.80;0.80;;;;;;;2.01;100.00;62204.13;5071992;28;20232;-73
2022/04/18 00:39:36;;;;;;;1.20;1.20;;;;;;;1.97;100.00;62200.53;5067665;28;20201;-73
2022/04/18 00:42:03;;;;;;;0.90;0.90;;;;;;;2.02;100.00;62208.16;5065849;28;20275;-73
2022/04/18 00:44:30;;;;;;;0.90;0.90;;;;;;;1.98;100.00;62201.56;5073822;28;20262;-73
2022/04/18 00:46:57;;;;;;;0.90;0.90;;;;;;;2.10;100.00;62213.88;5083061;28;20528;-73
2022/04/18 00:49:24;;;;;;;0.88;0.88;;;;;;;2.10;100.00;62218.91;5086095;28;20250;-72
2022/04/18 00:51:52;;;;;;;0.70;0.70;;;;;;;1.95;100.00;62200.47;5084530;28;20232;-74
2022/04/18 00:54:20;;;;;;;0.95;0.95;;;;;;;2.00;100.00;62205.59;5076972;28;20274;-73
2022/04/18 00:56:47;;;;;;;1.20;1.02;;;;;;;1.96;100.00;62196.47;5068609;28;20239;-73
2022/04/18 00:59:13;;;;;;;1.00;1.00;;;;;;;1.95;100.00;62198.47;5063860;28;20201;-74
2022/04/18 01:01:40;;;;;;;1.13;1.13;;;;;;;2.08;100.00;62213.81;5080534;28;20353;-75
2022/04/18 01:04:07;;;;;;;0.70;0.70;;;;;;;2.10;100.00;62213.88;5070013;28;20503;-73
2022/04/18 01:06:34;;;;;;;2.20;0.80;;;;;;;2.20;100.00;62223.63;5081092;28;20197;-73
2022/04/18 01:09:03;;;;;;;0.90;0.90;;;;;;;2.14;100.00;62219.97;5083589;28;20225;-74
2022/04/18 01:11:30;;;;;;;1.13;1.13;;;;;;;2.21;100.00;62229.66;5080123;28;20201;-73
2022/04/18 01:14:02;;;;;;;1.50;0.95;;;;;;;2.12;100.00;62217.94;5063234;28;20240;-73
2022/04/18 01:16:29;;;;;;;1.30;1.20;;;;;;;2.22;100.00;62223.16;5062919;28;20213;-73
2022/04/18 01:18:57;;;;;;;0.73;0.73;;;;;;;2.30;100.00;62233.88;5063616;28;20448;-74
2022/04/18 01:21:25;;;;;;;0.90;0.90;;;;;;;2.29;100.00;62230.34;5063453;28;20204;-72
2022/04/18 01:23:54;;;;;;;0.90;0.90;;;;;;;2.29;100.00;62235.38;5065222;28;20232;-73
2022/04/18 01:29:05;;;;;;;0.80;0.80;;;;;;;2.15;100.00;62218.50;5080087;28;20250;-73
2022/04/18 01:31:34;;;;;;;0.70;0.70;;;;;;;2.25;100.00;62229.28;5072752;28;20529;-74
2022/04/18 01:34:01;;;;;;;0.93;0.88;;;;;;;2.26;100.00;62227.28;5082740;28;20247;-74
2022/04/18 01:36:31;;;;;;;1.00;1.00;;;;;;;2.28;100.00;62234.34;5082494;28;20209;-73
2022/04/18 01:38:58;;;;;;;0.88;0.88;;;;;;;2.23;100.00;62227.22;5077886;28;20232;-73
2022/04/18 01:41:25;;;;;;;3.28;0.90;;;;;;;2.12;100.00;62215.41;5061477;28;20319;-74
2022/04/18 01:43:52;;;;;;;0.70;0.70;;;;;;;2.08;100.00;62216.31;5062739;28;20425;-73
2022/04/18 01:46:19;;;;;;;0.60;0.60;;;;;;;2.06;100.00;62211.75;5068463;28;20586;-74
2022/04/18 01:48:50;;;;;;;0.88;0.88;;;;;;;2.01;100.00;62209.66;5072540;28;20267;-75
2022/04/18 01:51:17;;;;;;;0.73;0.73;;;;;;;2.04;100.00;62209.69;5062379;28;20198;-73
2022/04/18 01:53:45;;;;;;;1.05;1.05;;;;;;;2.04;100.00;62205.19;5064778;28;20278;-74
2022/04/18 01:56:12;;;;;;;0.90;0.90;;;;;;;2.00;100.00;62203.09;5066704;28;20371;-73
2022/04/18 01:58:39;;;;;;;0.70;0.70;;;;;;;1.96;100.00;62201.50;5075841;28;20225;-73
2022/04/18 02:01:06;;;;;;;1.15;1.10;;;;;;;1.96;100.00;62202.00;5086631;28;20268;-72
2022/04/18 02:03:33;;;;;;;0.80;0.80;;;;;;;2.03;100.00;62209.19;5083542;28;20258;-73
2022/04/18 02:06:00;;;;;;;0.75;0.75;;;;;;;2.06;100.00;62211.75;5082602;28;20430;-74
2022/04/18 02:08:27;;;;;;;1.00;1.00;;;;;;;2.14;100.00;62219.97;5085525;28;20258;-73
2022/04/18 02:10:56;;;;;;;0.98;0.95;;;;;;;2.21;100.00;62227.16;5085535;28;20241;-72
2022/04/18 02:13:22;;;;;;;0.75;0.75;;;;;;;2.22;100.00;62225.69;5086206;28;20425;-73
2022/04/18 02:15:50;;;;;;;0.90;0.90;;;;;;;2.19;100.00;62223.09;5078546;28;20216;-73
2022/04/18 02:18:17;;;;;;;0.98;0.98;;;;;;;2.12;100.00;62220.94;5073600;28;20305;-73
2022/04/18 02:20:43;;;;;;;0.60;0.60;;;;;;;1.96;100.00;62201.50;5078142;28;20208;-73
2022/04/18 02:23:10;;;;;;;0.75;0.75;;;;;;;2.02;100.00;62210.66;5085787;28;20303;-74
2022/04/18 02:25:37;;;;;;;0.80;0.80;;;;;;;2.09;100.00;62214.84;5081219;28;20209;-74
2022/04/18 02:28:06;;;;;;;1.00;1.00;;;;;;;2.22;100.00;62226.19;5084064;28;20225;-73
2022/04/18 02:30:33;;;;;;;0.80;0.80;;;;;;;2.10;100.00;62213.34;5085798;28;20242;-73
2022/04/18 02:33:00;;;;;;;1.10;1.10;;;;;;;1.97;100.00;62203.03;5082910;28;20296;-74
2022/04/18 02:35:27;;;;;;;1.35;1.25;;;;;;;2.03;100.00;62204.19;5066099;28;20237;-73
2022/04/18 02:37:54;;;;;;;2.85;1.10;;;;;;;1.98;100.00;62208.56;5071991;28;20266;-74
2022/04/18 02:40:22;;;;;;;1.00;0.95;;;;;;;1.98;100.00;62204.06;5086289;28;20201;-73
2022/04/18 02:42:48;;;;;;;0.60;0.60;;;;;;;2.05;100.00;62216.25;5078954;28;20225;-72
2022/04/18 02:45:19;;;;;;;4.03;0.75;;;;;;;2.00;100.00;62203.09;5086277;28;20243;-72
2022/04/18 02:47:45;;;;;;;0.95;0.95;;;;;;;1.98;100.00;62201.56;5085612;28;20226;-74
2022/04/18 02:50:12;;;;;;;1.08;1.08;;;;;;;1.89;100.00;62191.78;5089945;28;20197;-73
2022/04/18 02:52:39;;;;;;;1.00;1.00;;;;;;;2.02;100.00;62205.16;5081400;28;20237;-73
2022/04/18 02:55:07;;;;;;;0.90;0.90;;;;;;;2.12;100.00;62220.94;5073565;28;20418;-73
2022/04/18 02:57:35;;;;;;;1.05;1.05;;;;;;;2.10;100.00;62210.84;5080774;28;20225;-73
2022/04/18 03:00:02;;;;;;;1.23;1.13;;;;;;;2.09;100.00;62219.84;5067565;28;20212;-73
2022/04/18 03:02:30;;;;;;;0.90;0.60;;;;;;;2.28;100.00;62231.84;5076213;28;20233;-74
2022/04/18 03:04:57;;;;;;;1.50;1.00;;;;;;;2.19;100.00;62225.63;5085185;28;20506;-73
2022/04/18 03:07:24;;;;;;;0.80;0.80;;;;;;;2.25;100.00;62231.28;5082282;28;20220;-73
2022/04/18 03:09:51;;;;;;;1.00;1.00;;;;;;;2.33;100.00;62236.97;5078651;28;20383;-74
2022/04/18 03:12:17;;;;;;;2.22;2.03;;;;;;;2.33;100.00;62236.97;5082324;28;20550;-75
2022/04/18 03:14:44;;;;;;;1.00;1.00;;;;;;;2.32;100.00;62236.47;5084645;28;20228;-73
2022/04/18 03:17:11;;;;;;;0.70;0.70;;;;;;;2.32;100.00;62241.50;5069239;28;20449;-74
2022/04/18 03:19:40;;;;;;;0.90;0.90;;;;;;;2.32;100.00;62236.47;5077531;28;20228;-74
2022/04/18 03:22:07;;;;;;;1.70;1.60;;;;;;;2.33;100.00;62237.50;5084429;28;20220;-74
2022/04/18 03:24:35;;;;;;;1.33;1.33;;;;;;;2.39;100.00;62245.66;5084660;28;20374;-75
2022/04/18 03:27:02;;;;;;;1.60;1.50;;;;;;;2.59;100.00;62265.69;5083775;28;20246;-73
2022/04/18 03:29:29;;;;;;;1.55;1.45;;;;;;;2.64;100.00;62268.31;5072492;28;20200;-74
2022/04/18 03:31:55;;;;;;;1.90;1.73;;;;;;;2.64;100.00;62268.31;5075874;28;20247;-74
2022/04/18 03:34:22;;;;;;;2.05;1.83;;;;;;;2.66;100.00;62267.84;5077844;28;20237;-73
2022/04/18 03:39:53;;;;;;;7.65;5.18;;;;;;;2.69;100.00;62273.44;5081275;28;20199;-74
2022/04/18 03:42:33;;;;;;;2.47;2.28;;;;;;;2.62;100.00;62266.25;5084795;28;20247;-74
2022/04/18 03:45:02;;;;;;;1.50;1.40;;;;;;;2.76;100.00;62285.66;5082402;28;20258;-74
2022/04/18 03:47:29;;;;;;;1.02;1.02;;;;;;;2.42;100.00;62248.22;5081209;28;20296;-75
2022/04/18 03:49:56;;;;;;;2.40;1.70;;;;;;;2.39;100.00;62248.16;5084356;28;20204;-74
2022/04/18 03:52:25;;;;;;;2.35;2.10;;;;;;;2.21;100.00;62225.16;5068092;28;20271;-73
2022/04/18 03:54:52;;;;;;;1.40;1.30;;;;;;;2.12;100.00;62220.44;5077418;28;20243;-74
2022/04/18 03:57:19;;;;;;;1.83;1.73;;;;;;;1.87;100.00;62192.75;5068537;28;20225;-73
2022/04/18 03:59:46;;;;;;;1.92;0.80;;;;;;;1.86;100.00;62193.75;5066807;28;20246;-73
2022/04/18 04:02:13;;;;;;;1.10;1.10;;;;;;;2.01;100.00;62209.13;5072418;28;20237;-73
2022/04/18 04:04:42;;;;;;;0.80;0.80;;;;;;;2.16;100.00;62217.53;5067132;28;20216;-73
2022/04/18 04:07:10;;;;;;;1.08;0.98;;;;;;;2.13;100.00;62218.94;5064033;28;20225;-74
2022/04/18 04:09:38;;;;;;;0.77;0.77;;;;;;;2.15;100.00;62216.50;5066483;28;20373;-74
2022/04/18 04:12:06;;;;;;;35.92;22.08;;;;;;;2.22;100.00;62225.69;5083167;28;20429;-74
2022/04/18 04:14:33;;;;;;;3.13;2.15;;;;;;;2.32;100.00;62236.47;5070396;28;20460;-73
2022/04/18 04:17:00;;;;;;;0.55;0.55;;;;;;;2.26;100.00;62232.81;5064015;28;20259;-74
2022/04/18 04:19:27;;;;;;;0.75;0.75;;;;;;;2.17;100.00;62220.56;5076865;28;20272;-74
2022/04/18 04:21:54;;;;;;;1.30;0.70;;;;;;;2.34;100.00;62240.53;5079287;28;20264;-73
2022/04/18 04:24:21;;;;;;;0.65;0.60;;;;;;;2.36;100.00;62243.06;5073827;28;20224;-74
2022/04/18 04:26:50;;;;;;;0.90;0.90;;;;;;;2.41;100.00;62245.19;5082312;28;20219;-74
2022/04/18 04:29:17;;;;;;;0.50;0.50;;;;;;;2.47;100.00;62253.38;5083794;28;20287;-74
2022/04/18 04:31:44;;;;;;;0.80;0.80;;;;;;;2.37;100.00;62243.59;5069463;28;20520;-74
2022/04/18 04:34:12;;;;;;;0.90;0.90;;;;;;;2.22;100.00;62225.69;5081138;28;20224;-73
2022/04/18 04:36:39;;;;;;;0.77;0.77;;;;;;;2.37;100.00;62246.09;5083643;28;20208;-74
2022/04/18 04:39:06;;;;;;;1.17;1.00;;;;;;;2.33;100.00;62236.97;5083442;28;20201;-74
2022/04/18 04:41:33;;;;;;;1.50;1.40;;;;;;;2.08;100.00;62208.78;5075538;28;20212;-73
2022/04/18 04:44:01;;;;;;;1.05;1.05;;;;;;;2.00;100.00;62206.09;5066168;28;20260;-74
2022/04/18 04:46:28;;;;;;;1.10;1.10;;;;;;;2.00;100.00;62206.09;5063354;28;20206;-76
2022/04/18 04:48:55;;;;;;;1.50;1.40;;;;;;;2.11;100.00;62217.41;5062991;28;20278;-74
2022/04/18 04:51:22;;;;;;;1.45;1.35;;;;;;;2.33;100.00;62242.00;5067445;28;20209;-74
2022/04/18 04:53:49;;;;;;;1.20;1.10;;;;;;;2.08;100.00;62211.31;5063504;28;20283;-74
2022/04/18 04:56:16;;;;;;;6.13;1.30;;;;;;;1.95;100.00;62195.94;5063776;28;20244;-74
2022/04/18 04:58:43;;;;;;;2.97;1.27;;;;;;;2.07;100.00;62210.28;5067438;28;20228;-74
2022/04/18 05:01:12;;;;;;;1.10;1.10;;;;;;;2.35;100.00;62239.03;5078058;28;20215;-74
2022/04/18 05:03:39;;;;;;;2.85;1.40;;;;;;;2.63;100.00;62269.78;5072438;28;20225;-73
2022/04/18 05:06:07;;;;;;;0.90;0.90;;;;;;;2.71;100.00;62273.00;5063192;28;20201;-74
2022/04/18 05:08:33;;;;;;;1.73;1.45;;;;;;;2.69;100.00;62273.97;5066066;28;20224;-74
2022/04/18 05:11:01;;;;;;;1.20;1.20;;;;;;;2.83;100.00;62288.34;5081428;28;20235;-74
2022/04/18 05:13:27;;;;;;;1.00;1.00;;;;;;;3.04;100.00;62311.91;5070163;28;20398;-74
2022/04/18 05:15:54;;;;;;;2.00;1.90;;;;;;;3.15;100.00;62321.22;5083752;28;20564;-74
2022/04/18 05:18:22;;;;;;;1.63;1.60;;;;;;;3.36;100.00;62340.31;5067661;28;20220;-75
2022/04/18 05:20:49;;;;;;;1.50;1.40;;;;;;;3.34;100.00;62345.28;5063678;28;20236;-75
2022/04/18 05:23:17;;;;;;;1.42;1.33;;;;;;;3.31;100.00;62337.16;5075626;28;20229;-74
2022/04/18 05:25:44;;;;;;;2.08;1.70;;;;;;;3.38;100.00;62346.88;5075271;28;20209;-74
2022/04/18 05:28:11;;;;;;;1.92;1.80;;;;;;;3.28;100.00;62332.06;5071869;28;20266;-74
2022/04/18 05:30:38;;;;;;;3.00;1.85;;;;;;;3.46;100.00;62358.13;5080200;28;20197;-74
2022/04/18 05:33:04;;;;;;;1.73;1.63;;;;;;;3.33;100.00;62342.25;5086963;28;20222;-73
2022/04/18 05:35:33;;;;;;;1.30;1.30;;;;;;;3.30;100.00;62338.66;5081754;28;20247;-74
2022/04/18 05:38:00;;;;;;;1.17;1.17;;;;;;;3.39;100.00;62345.38;5081467;28;20559;-73
2022/04/18 05:40:27;;;;;;;1.17;1.17;;;;;;;3.43;100.00;62347.00;5066151;28;20197;-73
2022/04/18 05:42:54;;;;;;;1.42;1.33;;;;;;;3.51;100.00;62358.25;5067252;28;20267;-73
2022/04/18 05:45:21;;;;;;;1.40;1.30;;;;;;;3.50;100.00;62354.19;5068273;28;20208;-74
2022/04/18 05:47:48;;;;;;;1.13;1.13;;;;;;;3.46;100.00;62358.13;5079527;28;20232;-73
2022/04/18 05:50:15;;;;;;;1.50;1.40;;;;;;;3.17;100.00;62328.31;5085223;28;20509;-73
2022/04/18 05:52:43;;;;;;;1.27;1.27;;;;;;;3.21;100.00;62329.41;5085584;28;20287;-74
2022/04/18 05:55:10;;;;;;;1.38;1.35;;;;;;;3.14;100.00;62317.69;5074819;28;20635;-74
2022/04/18 05:57:36;;;;;;;1.23;1.23;;;;;;;2.95;100.00;62302.69;5068375;28;20260;-74
2022/04/18 06:00:05;;;;;;;1.40;1.40;;;;;;;2.93;100.00;62301.13;5070915;28;20229;-73
2022/04/18 06:02:32;;;;;;;1.33;1.23;;;;;;;3.05;100.00;62312.94;5074404;28;20233;-74
2022/04/18 06:04:58;;;;;;;1.33;1.33;;;;;;;3.24;100.00;62332.47;5076636;28;20201;-74
2022/04/18 06:07:25;;;;;;;2.00;1.90;;;;;;;3.31;100.00;62337.66;5066684;28;20222;-72
2022/04/18 06:09:53;;;;;;;1.70;1.70;;;;;;;3.44;100.00;62353.56;5067685;28;20380;-75
2022/04/18 06:12:21;;;;;;;1.50;1.40;;;;;;;3.70;100.00;62379.25;5073936;28;20287;-73
2022/04/18 06:14:48;;;;;;;1.80;1.50;;;;;;;3.85;100.00;62395.19;5078426;28;20248;-75
2022/04/18 06:17:15;;;;;;;2.42;1.40;;;;;;;3.97;100.00;62407.53;5069419;28;20225;-75
2022/04/18 06:19:42;;;;;;;2.20;2.10;;;;;;;3.67;100.00;62373.66;5078689;28;20216;-74
2022/04/18 06:22:09;;;;;;;2.90;2.03;;;;;;;3.82;100.00;62389.59;5072959;28;20597;-75
2022/04/18 06:24:35;;;;;;;1.90;1.77;;;;;;;3.62;100.00;62366.53;5070887;28;20205;-74
2022/04/18 06:27:04;;;;;;;1.60;1.50;;;;;;;3.60;100.00;62366.47;5078778;28;20279;-74
2022/04/18 06:29:31;;;;;;;1.75;1.63;;;;;;;3.86;100.00;62393.19;5076141;28;20417;-73
2022/04/18 06:31:57;;;;;;;2.08;1.98;;;;;;;3.79;100.00;62389.03;5080900;28;20391;-75
2022/04/18 06:34:25;;;;;;;1.95;1.85;;;;;;;3.77;100.00;62383.94;5074175;28;20201;-74
2022/04/18 06:36:52;;;;;;;1.77;1.67;;;;;;;4.04;100.00;62414.75;5084791;28;20423;-74
2022/04/18 06:39:19;;;;;;;1.80;1.67;;;;;;;3.93;100.00;62403.44;5080744;28;20278;-74
2022/04/18 06:41:45;;;;;;;2.25;2.15;;;;;;;3.69;100.00;62376.25;5071292;28;20200;-74
2022/04/18 06:44:14;;;;;;;2.33;2.22;;;;;;;3.52;100.00;62364.28;5082229;28;20251;-74
2022/04/18 06:46:40;;;;;;;2.00;1.90;;;;;;;3.45;100.00;62356.59;5085068;28;20211;-74
2022/04/18 06:49:07;;;;;;;2.15;2.05;;;;;;;3.13;100.00;62318.66;5077555;28;20204;-74
2022/04/18 06:51:34;;;;;;;2.25;2.15;;;;;;;3.04;100.00;62312.44;5076166;28;20532;-74
2022/04/18 06:54:01;;;;;;;2.30;2.10;;;;;;;3.32;100.00;62341.22;5068558;28;20440;-75
2022/04/18 06:59:13;;;;;;;4.88;2.25;;;;;;;3.35;100.00;62341.78;5078516;28;20202;-74
2022/04/18 07:01:40;;;;;;;2.72;2.53;;;;;;;3.14;100.00;62317.19;5069842;28;20210;-74
2022/04/18 07:04:08;;;;;;;2.35;2.15;;;;;;;3.15;100.00;62323.22;5070743;28;20209;-74
2022/04/18 07:06:35;;;;;;;2.47;2.30;;;;;;;3.01;100.00;62306.84;5081126;28;20208;-74
2022/04/18 07:09:02;;;;;;;2.92;2.63;;;;;;;3.13;100.00;62321.69;5067159;28;20299;-74
2022/04/18 07:11:29;;;;;;;2.80;1.90;;;;;;;3.12;100.00;62323.16;5073496;28;20209;-73
2022/04/18 07:13:55;;;;;;;2.30;2.10;;;;;;;2.91;100.00;62291.53;5081293;28;20225;-74
2022/04/18 07:16:24;;;;;;;2.25;2.13;;;;;;;2.97;100.00;62302.72;5081622;28;20243;-74
2022/04/18 07:18:50;;;;;;;2.40;2.22;;;;;;;2.94;100.00;62302.16;5070634;28;20225;-74
2022/04/18 07:21:17;;;;;;;2.20;1.92;;;;;;;3.10;100.00;62318.63;5069307;28;20498;-73
2022/04/18 07:23:44;;;;;;;2.10;1.90;;;;;;;3.16;100.00;62317.22;5074135;28;20623;-73
2022/04/18 07:26:11;;;;;;;2.05;1.95;;;;;;;3.17;100.00;62323.28;5083912;28;20496;-74
2022/04/18 07:28:38;;;;;;;1.75;1.65;;;;;;;3.51;100.00;62360.75;5082521;28;20228;-74
2022/04/18 07:31:06;;;;;;;2.33;2.22;;;;;;;3.73;100.00;62380.34;5067279;28;20248;-74
2022/04/18 07:33:35;;;;;;;2.30;2.20;;;;;;;4.08;100.00;62415.81;5075238;28;20228;-73
2022/04/18 07:36:03;;;;;;;2.00;1.88;;;;;;;3.76;100.00;62380.41;5084366;28;20302;-73
2022/04/18 07:41:14;;;;;;;1.83;1.67;;;;;;;3.62;100.00;62366.00;5077250;28;20231;-74
2022/04/18 07:43:41;;;;;;;2.17;2.08;;;;;;;3.33;100.00;62344.25;5083834;28;20264;-73
2022/04/18 07:46:08;;;;;;;1.80;1.70;;;;;;;3.41;100.00;62353.00;5084135;28;20432;-74
2022/04/18 07:48:36;;;;;;;2.30;2.20;;;;;;;3.33;100.00;62341.75;5082097;28;20370;-74
2022/04/18 07:53:48;;;;;;;2.55;2.08;;;;;;;3.44;100.00;62353.03;5080020;28;20279;-73
2022/04/18 07:56:15;;;;;;;1.85;1.75;;;;;;;3.26;100.00;62334.53;5083276;28;20427;-75
2022/04/18 07:58:42;;;;;;;1.58;1.52;;;;;;;3.14;100.00;62319.69;5080984;28;20228;-73
2022/04/18 08:01:10;;;;;;;2.00;1.90;;;;;;;2.96;100.00;62301.19;5071379;28;20201;-74
2022/04/18 08:03:38;;;;;;;1.95;1.67;;;;;;;2.72;100.00;62276.53;5071490;28;20224;-73
2022/04/18 08:06:05;;;;;;;1.85;1.75;;;;;;;2.76;100.00;62280.63;5084614;28;20207;-73
2022/04/18 08:08:32;;;;;;;1.90;1.40;;;;;;;2.64;100.00;62268.31;5079494;28;20233;-74
2022/04/18 08:10:59;;;;;;;3.47;1.50;;;;;;;2.46;100.00;62252.31;5075208;28;20218;-74
2022/04/18 08:13:26;;;;;;;1.85;1.30;;;;;;;2.55;100.00;62259.06;5084170;28;20224;-73
2022/04/18 08:15:53;;;;;;;1.67;1.58;;;;;;;2.63;100.00;62272.31;5082733;28;20232;-74
2022/04/18 08:18:21;;;;;;;1.70;1.60;;;;;;;2.74;100.00;62278.59;5078277;28;20228;-74
2022/04/18 08:20:49;;;;;;;2.25;1.85;;;;;;;2.85;100.00;62290.41;5078073;28;20224;-73
2022/04/18 08:23:16;;;;;;;2.60;2.22;;;;;;;2.82;100.00;62289.31;5083179;28;20258;-73
2022/04/18 08:25:44;;;;;;;2.33;2.15;;;;;;;2.56;100.00;62268.13;5083539;28;20205;-73
2022/04/18 08:28:11;;;;;;;2.35;2.15;;;;;;;2.56;100.00;62262.59;5069673;28;20239;-73
2022/04/18 08:30:38;;;;;;;2.30;2.10;;;;;;;2.45;100.00;62251.81;5068577;28;20216;-74
2022/04/18 08:33:04;;;;;;;2.08;1.98;;;;;;;2.43;100.00;62244.75;5067601;28;20595;-74
2022/04/18 08:35:32;;;;;;;2.05;1.95;;;;;;;2.47;100.00;62255.88;5075110;28;20235;-74
2022/04/18 08:38:01;;;;;;;2.50;2.30;;;;;;;2.55;100.00;62259.06;5071120;28;20288;-74
2022/04/18 08:40:28;;;;;;;3.35;2.42;;;;;;;2.62;100.00;62264.25;5076921;28;20212;-73
2022/04/18 08:42:56;;;;;;;1.65;1.55;;;;;;;2.60;100.00;62264.72;5071953;28;20234;-75
2022/04/18 08:45:24;;;;;;;2.28;1.85;;;;;;;2.51;100.00;62254.94;5074638;28;20553;-74
2022/04/18 08:53:21;;;;;;;2.00;1.90;;;;;;;2.93;100.00;62301.13;5041127;28;20216;-74
2022/04/18 08:55:49;;;;;;;2.53;1.85;;;;;;;2.97;100.00;62297.19;5073881;28;20232;-74
2022/04/18 08:58:16;;;;;;;2.10;2.00;;;;;;;3.01;100.00;62309.34;5076000;28;20213;-74
2022/04/18 09:00:43;;;;;;;2.40;2.30;;;;;;;2.98;100.00;62303.25;5074695;28;20216;-73
2022/04/18 09:03:10;;;;;;;2.05;1.85;;;;;;;2.96;100.00;62311.75;5067832;28;20224;-73
2022/04/18 09:05:38;;;;;;;1.90;1.75;;;;;;;2.79;100.00;62286.22;5080014;28;20216;-75
2022/04/18 09:08:07;;;;;;;2.60;1.48;;;;;;;2.69;100.00;62273.97;5079149;28;20229;-73
2022/04/18 09:10:37;;;;;;;1.50;1.40;;;;;;;2.73;100.00;62277.53;5082212;28;20208;-74
2022/04/18 09:13:05;;;;;;;1.08;0.98;;;;;;;2.84;100.00;62291.38;5067890;28;20248;-74
2022/04/18 09:15:36;;;;;;;2.88;1.88;;;;;;;2.95;100.00;62298.16;5078037;28;20266;-73
2022/04/18 09:18:10;;;;;;;1.23;1.17;;;;;;;3.11;100.00;62316.59;5083513;28;20225;-73
2022/04/18 09:20:42;;;;;;;1.63;1.48;;;;;;;3.26;100.00;62332.03;5079222;28;20249;-73
2022/04/18 09:23:20;;;;;;;2.03;1.58;;;;;;;3.65;100.00;62369.09;5077601;28;20405;-74
2022/04/18 09:25:53;;;;;;;1.48;1.48;;;;;;;3.87;100.00;62394.22;5071475;28;20226;-74
2022/04/18 09:28:24;;;;;;;1.65;1.55;;;;;;;3.56;100.00;62362.84;5074049;28;20572;-75
2022/04/18 09:30:58;;;;;;;1.63;1.52;;;;;;;3.43;100.00;62352.03;5072613;28;20201;-75
2022/04/18 09:33:29;;;;;;;1.45;1.45;;;;;;;3.69;100.00;62378.75;5081495;28;20340;-74
2022/04/18 09:36:06;;;;;;;1.55;1.52;;;;;;;4.07;100.00;62419.84;5081016;28;20298;-73
2022/04/18 09:38:37;;;;;;;1.70;1.60;;;;;;;4.11;100.00;62416.38;5080007;28;20516;-74
2022/04/18 09:41:06;;;;;;;1.77;1.30;;;;;;;4.43;100.00;62454.38;5071423;28;20404;-74
2022/04/18 09:43:40;;;;;;;1.70;1.60;;;;;;;4.27;99.13;62435.91;5084118;28;20228;-73
2022/04/18 09:46:08;;;;;;;1.40;1.30;;;;;;;4.45;99.81;62454.41;5078630;28;20527;-75
2022/04/18 09:48:38;;;;;;;1.70;1.60;;;;;;;4.73;98.39;62482.72;5078220;28;20271;-75
2022/04/18 09:51:14;;;;;;;1.75;1.65;;;;;;;4.94;97.63;62506.34;5082339;28;20200;-75
2022/04/18 09:53:43;;;;;;;2.92;2.72;;;;;;;5.15;97.11;62525.97;5084484;28;20269;-75
2022/04/18 09:56:17;;;;;;;1.92;1.83;;;;;;;5.33;95.76;62546.53;5075835;28;20241;-74
2022/04/18 09:58:45;;;;;;;1.77;1.67;;;;;;;5.54;93.78;62563.09;5081581;28;20583;-76
2022/04/18 10:01:12;;;;;;;1.67;1.58;;;;;;;5.79;91.15;62591.91;5069428;28;20213;-74
2022/04/18 10:03:41;;;;;;;1.65;1.52;;;;;;;5.94;88.93;62606.34;5071973;28;20555;-74
2022/04/18 10:06:11;;;;;;;2.65;2.10;;;;;;;5.53;87.47;62564.59;5076233;28;20201;-75
2022/04/18 10:08:39;;;;;;;1.90;1.80;;;;;;;5.57;87.89;62573.78;5074200;28;20225;-74
2022/04/18 10:11:11;;;;;;;2.65;2.45;;;;;;;6.01;88.57;62614.06;5077573;28;20209;-75
2022/04/18 10:13:39;;;;;;;3.33;1.70;;;;;;;5.96;87.16;62613.97;5077381;28;20505;-74
2022/04/18 10:16:07;;;;;;;2.20;2.10;;;;;;;6.24;87.06;62637.25;5077835;28;20241;-74
2022/04/18 10:18:42;;;;;;;2.90;2.63;;;;;;;6.52;86.99;62668.66;5066809;28;20228;-74
2022/04/18 10:21:39;;;;;;;3.22;2.67;;;;;;;6.67;85.58;62684.13;5080435;28;20212;-74
2022/04/18 10:24:37;;;;;;;2.05;1.95;;;;;;;6.32;84.04;62642.97;5028438;28;20257;-78
2022/04/18 10:27:26;;;;;;;2.08;1.98;;;;;;;6.62;85.22;62682.03;5080267;28;20526;-74
2022/04/18 10:29:58;;;;;;;2.15;2.00;;;;;;;6.61;82.92;62677.94;5075314;28;20212;-73
2022/04/18 10:32:27;;;;;;;2.33;2.22;;;;;;;6.13;85.22;62626.44;5080955;28;20221;-74
2022/04/18 10:35:00;;;;;;;3.70;1.60;;;;;;;6.01;86.24;62614.06;5075843;28;20200;-74
2022/04/18 10:37:29;;;;;;;1.75;1.65;;;;;;;6.23;83.92;62636.25;5075490;28;20251;-74
2022/04/18 10:39:58;;;;;;;1.83;1.73;;;;;;;6.43;82.00;62661.91;5075879;28;20247;-74
2022/04/18 10:42:30;;;;;;;1.88;1.77;;;;;;;6.33;79.48;62647.06;5082862;28;20609;-75
2022/04/18 10:45:08;;;;;;;2.00;1.90;;;;;;;5.54;81.36;62563.09;5076719;28;20201;-73
2022/04/18 10:48:08;;;;;;;3.20;1.75;;;;;;;5.27;86.18;62540.31;5073392;28;20220;-74
2022/04/18 10:50:46;;;;;;;3.47;1.85;;;;;;;5.49;88.39;62563.00;5084015;28;20247;-74
2022/04/18 10:53:19;;;;;;;4.55;2.25;;;;;;;5.77;87.64;62589.84;5083182;28;20227;-74
2022/04/18 10:56:10;;;;;;;2.00;1.90;;;;;;;5.68;86.35;62580.03;5084118;28;20225;-74
2022/04/18 10:58:38;;;;;;;1.60;1.50;;;;;;;5.68;85.27;62582.56;5069992;28;20257;-74
2022/04/18 11:01:09;;;;;;;1.45;1.35;;;;;;;5.88;nan;62600.69;5070650;28;20452;-74
2022/04/18 11:04:00;;;;;;;1.30;1.30;;;;;;;5.80;82.68;62595.44;5077789;28;20473;-74
2022/04/18 11:06:59;;;;;;;1.27;1.25;;;;;;;5.74;82.83;62588.75;5075443;28;20206;-74
2022/04/18 11:09:28;;;;;;;1.05;1.05;;;;;;;5.81;83.92;62599.03;5074864;28;20204;-73
2022/04/18 11:12:06;;;;;;;0.82;0.82;;;;;;;6.07;85.22;62622.25;5075454;28;20216;-74
2022/04/18 11:14:49;;;;;;;2.63;0.98;;;;;;;6.02;82.47;62617.63;5084273;28;20384;-73
2022/04/18 11:17:28;;;;;;;2.53;1.40;;;;;;;6.02;83.24;62622.16;5084901;28;20497;-74
2022/04/18 11:19:55;;;;;;;1.48;1.38;;;;;;;5.82;82.74;62591.94;5080348;28;20434;-74
2022/04/18 11:22:23;;;;;;;1.10;1.10;;;;;;;5.47;83.12;62561.44;5075868;28;20236;-74
2022/04/18 11:25:11;;;;;;;5.65;1.33;;;;;;;5.30;84.96;62540.88;5179440;27;20718;-74
2022/04/18 11:27:39;;;;;;;1.50;1.40;;;;;;;5.26;86.06;62539.31;5142604;27;20213;-74
2022/04/18 11:30:15;;;;;;;1.48;1.38;;;;;;;5.03;86.32;62516.13;5139714;28;20207;-74
2022/04/18 11:32:44;;;;;;;1.20;1.15;;;;;;;4.96;87.32;62508.91;5142886;27;20550;-74
2022/04/18 11:35:12;;;;;;;1.30;1.20;;;;;;;5.07;87.09;62519.75;5153670;27;20252;-74
2022/04/18 11:37:40;;;;;;;1.98;1.10;;;;;;;5.31;87.50;62542.44;5145326;27;20465;-74
2022/04/18 11:40:10;;;;;;;2.92;1.48;;;;;;;5.57;87.90;62571.25;5138881;27;20199;-74
2022/04/18 11:42:39;;;;;;;2.67;1.27;;;;;;;5.09;84.54;62522.31;5141055;28;20233;-74
2022/04/18 11:45:08;;;;;;;1.63;1.52;;;;;;;5.31;85.40;62544.97;5139983;28;20202;-74
2022/04/18 11:47:41;;;;;;;1.23;1.13;;;;;;;5.51;82.72;62565.06;5135058;28;20543;-75
2022/04/18 11:50:09;;;;;;;2.03;1.48;;;;;;;5.55;83.43;62566.66;5161427;27;20228;-74
2022/04/18 11:52:38;;;;;;;1.38;1.27;;;;;;;5.79;83.03;62586.31;5153946;27;20633;-74
2022/04/18 11:55:07;;;;;;;1.08;1.08;;;;;;;5.75;81.62;62587.78;5144007;27;20230;-75
2022/04/18 11:57:37;;;;;;;1.63;1.52;;;;;;;5.90;80.54;62605.28;5150606;27;20222;-75
2022/04/18 12:00:07;;;;;;;1.50;1.50;;;;;;;5.21;82.61;62536.69;5153279;27;20378;-75